sensor_id;sensor_type;location;lat;lon;timestamp;P1;durP1;ratioP1;P2;durP2;ratioP2
15240;SDS011;7723;52.170;9.978;2022-08-07T00:01:47;3.53;;;2.40;;
15240;SDS011;7723;52.170;9.978;2022-08-07T00:04:14;4.10;;;2.67;;
15240;SDS011;7723;52.170;9.978;2022-08-07T00:06:41;3.78;;;2.72;;
15240;SDS011;7723;52.170;9.978;2022-08-07T00:09:08;3.55;;;2.63;;
15240;SDS011;7723;52.170;9.978;2022-08-07T00:11:35;2.55;;;2.33;;
15240;SDS011;7723;52.170;9.978;2022-08-07T00:14:02;3.97;;;2.72;;
15240;SDS011;7723;52.170;9.978;2022-08-07T00:16:30;2.60;;;2.40;;
15240;SDS011;7723;52.170;9.978;2022-08-07T00:18:58;3.00;;;2.17;;
15240;SDS011;7723;52.170;9.978;2022-08-07T00:21:25;3.05;;;2.40;;
15240;SDS011;7723;52.170;9.978;2022-08-07T00:23:52;3.40;;;2.78;;
15240;SDS011;7723;52.170;9.978;2022-08-07T00:26:19;5.15;;;2.30;;
15240;SDS011;7723;52.170;9.978;2022-08-07T00:28:47;3.22;;;2.70;;
15240;SDS011;7723;52.170;9.978;2022-08-07T00:31:14;3.88;;;2.70;;
15240;SDS011;7723;52.170;9.978;2022-08-07T00:33:41;4.68;;;2.53;;
15240;SDS011;7723;52.170;9.978;2022-08-07T00:36:09;2.92;;;2.63;;
15240;SDS011;7723;52.170;9.978;2022-08-07T00:38:37;3.78;;;2.45;;
15240;SDS011;7723;52.170;9.978;2022-08-07T00:41:04;3.30;;;2.50;;
15240;SDS011;7723;52.170;9.978;2022-08-07T00:43:32;3.35;;;2.60;;
15240;SDS011;7723;52.170;9.978;2022-08-07T00:45:59;3.55;;;2.50;;
15240;SDS011;7723;52.170;9.978;2022-08-07T00:48:28;2.35;;;2.15;;
15240;SDS011;7723;52.170;9.978;2022-08-07T00:50:56;3.13;;;2.75;;
15240;SDS011;7723;52.170;9.978;2022-08-07T00:53:24;3.50;;;2.40;;
15240;SDS011;7723;52.170;9.978;2022-08-07T00:55:52;4.10;;;2.42;;
15240;SDS011;7723;52.170;9.978;2022-08-07T00:58:19;3.88;;;2.63;;
15240;SDS011;7723;52.170;9.978;2022-08-07T01:00:47;4.85;;;2.63;;
15240;SDS011;7723;52.170;9.978;2022-08-07T01:03:14;3.78;;;2.85;;
15240;SDS011;7723;52.170;9.978;2022-08-07T01:05:43;3.92;;;2.95;;
15240;SDS011;7723;52.170;9.978;2022-08-07T01:08:12;3.33;;;2.90;;
15240;SDS011;7723;52.170;9.978;2022-08-07T01:10:41;4.70;;;3.35;;
15240;SDS011;7723;52.170;9.978;2022-08-07T01:13:09;4.28;;;3.15;;
15240;SDS011;7723;52.170;9.978;2022-08-07T01:15:36;4.07;;;3.33;;
15240;SDS011;7723;52.170;9.978;2022-08-07T01:18:04;4.45;;;3.53;;
15240;SDS011;7723;52.170;9.978;2022-08-07T01:20:33;3.85;;;3.10;;
15240;SDS011;7723;52.170;9.978;2022-08-07T01:23:08;3.78;;;3.38;;
15240;SDS011;7723;52.170;9.978;2022-08-07T01:25:37;3.83;;;3.22;;
15240;SDS011;7723;52.170;9.978;2022-08-07T01:28:05;5.68;;;3.63;;
15240;SDS011;7723;52.170;9.978;2022-08-07T01:30:32;4.50;;;3.88;;
15240;SDS011;7723;52.170;9.978;2022-08-07T01:33:02;5.80;;;3.50;;
15240;SDS011;7723;52.170;9.978;2022-08-07T01:35:29;4.95;;;4.45;;
15240;SDS011;7723;52.170;9.978;2022-08-07T01:37:56;5.30;;;3.40;;
15240;SDS011;7723;52.170;9.978;2022-08-07T01:40:25;3.40;;;3.10;;
15240;SDS011;7723;52.170;9.978;2022-08-07T01:42:54;3.28;;;2.53;;
15240;SDS011;7723;52.170;9.978;2022-08-07T01:45:21;4.75;;;3.25;;
15240;SDS011;7723;52.170;9.978;2022-08-07T01:47:50;4.65;;;2.78;;
15240;SDS011;7723;52.170;9.978;2022-08-07T01:50:18;5.07;;;3.55;;
15240;SDS011;7723;52.170;9.978;2022-08-07T01:52:47;4.40;;;3.60;;
15240;SDS011;7723;52.170;9.978;2022-08-07T01:55:17;4.75;;;4.20;;
15240;SDS011;7723;52.170;9.978;2022-08-07T01:57:50;4.60;;;4.05;;
15240;SDS011;7723;52.170;9.978;2022-08-07T02:00:20;5.55;;;4.50;;
15240;SDS011;7723;52.170;9.978;2022-08-07T02:02:52;5.88;;;4.35;;
15240;SDS011;7723;52.170;9.978;2022-08-07T02:05:22;5.28;;;4.10;;
15240;SDS011;7723;52.170;9.978;2022-08-07T02:07:54;6.95;;;3.80;;
15240;SDS011;7723;52.170;9.978;2022-08-07T02:10:26;5.15;;;4.13;;
15240;SDS011;7723;52.170;9.978;2022-08-07T02:12:57;3.85;;;3.22;;
15240;SDS011;7723;52.170;9.978;2022-08-07T02:15:26;4.00;;;3.63;;
15240;SDS011;7723;52.170;9.978;2022-08-07T02:17:56;4.32;;;3.30;;
15240;SDS011;7723;52.170;9.978;2022-08-07T02:20:24;3.70;;;3.33;;
15240;SDS011;7723;52.170;9.978;2022-08-07T02:22:52;4.43;;;4.00;;
15240;SDS011;7723;52.170;9.978;2022-08-07T02:25:23;4.00;;;3.70;;
15240;SDS011;7723;52.170;9.978;2022-08-07T02:27:52;4.13;;;3.72;;
15240;SDS011;7723;52.170;9.978;2022-08-07T02:30:24;4.13;;;3.50;;
15240;SDS011;7723;52.170;9.978;2022-08-07T02:32:52;5.03;;;3.83;;
15240;SDS011;7723;52.170;9.978;2022-08-07T02:35:22;4.15;;;3.45;;
15240;SDS011;7723;52.170;9.978;2022-08-07T02:37:51;4.22;;;3.38;;
15240;SDS011;7723;52.170;9.978;2022-08-07T02:40:21;4.78;;;3.95;;
15240;SDS011;7723;52.170;9.978;2022-08-07T02:42:48;4.90;;;3.35;;
15240;SDS011;7723;52.170;9.978;2022-08-07T02:45:18;4.68;;;3.75;;
15240;SDS011;7723;52.170;9.978;2022-08-07T02:47:47;5.15;;;3.42;;
15240;SDS011;7723;52.170;9.978;2022-08-07T02:50:14;4.35;;;3.75;;
15240;SDS011;7723;52.170;9.978;2022-08-07T02:52:42;3.90;;;3.50;;
15240;SDS011;7723;52.170;9.978;2022-08-07T02:55:14;3.90;;;3.50;;
15240;SDS011;7723;52.170;9.978;2022-08-07T02:57:44;3.53;;;3.22;;
15240;SDS011;7723;52.170;9.978;2022-08-07T03:00:13;5.65;;;4.10;;
15240;SDS011;7723;52.170;9.978;2022-08-07T03:02:43;3.38;;;2.92;;
15240;SDS011;7723;52.170;9.978;2022-08-07T03:05:12;4.50;;;3.45;;
15240;SDS011;7723;52.170;9.978;2022-08-07T03:07:40;4.93;;;3.00;;
15240;SDS011;7723;52.170;9.978;2022-08-07T03:10:09;4.85;;;3.28;;
15240;SDS011;7723;52.170;9.978;2022-08-07T03:12:37;3.75;;;2.85;;
15240;SDS011;7723;52.170;9.978;2022-08-07T03:15:06;4.28;;;3.78;;
15240;SDS011;7723;52.170;9.978;2022-08-07T03:17:34;3.40;;;3.10;;
15240;SDS011;7723;52.170;9.978;2022-08-07T03:20:04;3.40;;;2.90;;
15240;SDS011;7723;52.170;9.978;2022-08-07T03:22:32;6.05;;;2.80;;
15240;SDS011;7723;52.170;9.978;2022-08-07T03:25:01;3.42;;;3.03;;
15240;SDS011;7723;52.170;9.978;2022-08-07T03:27:28;4.18;;;3.70;;
15240;SDS011;7723;52.170;9.978;2022-08-07T03:29:56;3.95;;;3.50;;
15240;SDS011;7723;52.170;9.978;2022-08-07T03:32:26;4.43;;;3.58;;
15240;SDS011;7723;52.170;9.978;2022-08-07T03:34:56;4.80;;;3.47;;
15240;SDS011;7723;52.170;9.978;2022-08-07T03:37:27;4.13;;;3.05;;
15240;SDS011;7723;52.170;9.978;2022-08-07T03:39:56;4.88;;;3.72;;
15240;SDS011;7723;52.170;9.978;2022-08-07T03:42:24;5.45;;;3.40;;
15240;SDS011;7723;52.170;9.978;2022-08-07T03:44:52;3.80;;;2.67;;
15240;SDS011;7723;52.170;9.978;2022-08-07T03:47:19;4.05;;;3.22;;
15240;SDS011;7723;52.170;9.978;2022-08-07T03:49:47;5.80;;;3.28;;
15240;SDS011;7723;52.170;9.978;2022-08-07T03:52:15;3.47;;;3.13;;
15240;SDS011;7723;52.170;9.978;2022-08-07T03:54:46;4.18;;;3.78;;
15240;SDS011;7723;52.170;9.978;2022-08-07T03:57:13;3.63;;;3.15;;
15240;SDS011;7723;52.170;9.978;2022-08-07T03:59:41;4.25;;;3.03;;
15240;SDS011;7723;52.170;9.978;2022-08-07T04:02:09;3.35;;;2.90;;
15240;SDS011;7723;52.170;9.978;2022-08-07T04:04:37;3.70;;;3.30;;
15240;SDS011;7723;52.170;9.978;2022-08-07T04:07:07;4.22;;;2.95;;
15240;SDS011;7723;52.170;9.978;2022-08-07T04:09:34;3.75;;;3.00;;
15240;SDS011;7723;52.170;9.978;2022-08-07T04:12:03;7.95;;;3.10;;
15240;SDS011;7723;52.170;9.978;2022-08-07T04:14:31;3.58;;;2.83;;
15240;SDS011;7723;52.170;9.978;2022-08-07T04:16:59;3.78;;;3.30;;
15240;SDS011;7723;52.170;9.978;2022-08-07T04:19:26;5.55;;;3.55;;
15240;SDS011;7723;52.170;9.978;2022-08-07T04:21:53;3.95;;;3.15;;
15240;SDS011;7723;52.170;9.978;2022-08-07T04:24:21;4.78;;;3.28;;
15240;SDS011;7723;52.170;9.978;2022-08-07T04:26:48;4.70;;;3.58;;
15240;SDS011;7723;52.170;9.978;2022-08-07T04:29:17;4.68;;;3.40;;
15240;SDS011;7723;52.170;9.978;2022-08-07T04:31:45;4.28;;;3.42;;
15240;SDS011;7723;52.170;9.978;2022-08-07T04:34:12;3.83;;;3.47;;
15240;SDS011;7723;52.170;9.978;2022-08-07T04:36:40;4.20;;;3.55;;
15240;SDS011;7723;52.170;9.978;2022-08-07T04:39:07;4.03;;;3.20;;
15240;SDS011;7723;52.170;9.978;2022-08-07T04:41:35;4.22;;;3.00;;
15240;SDS011;7723;52.170;9.978;2022-08-07T04:44:02;3.05;;;2.60;;
15240;SDS011;7723;52.170;9.978;2022-08-07T04:46:32;2.20;;;2.00;;
15240;SDS011;7723;52.170;9.978;2022-08-07T04:49:05;2.42;;;2.22;;
15240;SDS011;7723;52.170;9.978;2022-08-07T04:51:48;2.15;;;1.90;;
15240;SDS011;7723;52.170;9.978;2022-08-07T04:54:21;2.45;;;2.25;;
15240;SDS011;7723;52.170;9.978;2022-08-07T04:56:57;3.10;;;2.60;;
15240;SDS011;7723;52.170;9.978;2022-08-07T04:59:31;5.90;;;2.25;;
15240;SDS011;7723;52.170;9.978;2022-08-07T05:02:05;3.50;;;2.63;;
15240;SDS011;7723;52.170;9.978;2022-08-07T05:04:37;3.80;;;2.65;;
15240;SDS011;7723;52.170;9.978;2022-08-07T05:07:10;2.60;;;2.40;;
15240;SDS011;7723;52.170;9.978;2022-08-07T05:09:43;4.05;;;2.30;;
15240;SDS011;7723;52.170;9.978;2022-08-07T05:12:17;2.88;;;2.10;;
15240;SDS011;7723;52.170;9.978;2022-08-07T05:14:54;3.00;;;2.15;;
15240;SDS011;7723;52.170;9.978;2022-08-07T05:17:41;3.83;;;2.08;;
15240;SDS011;7723;52.170;9.978;2022-08-07T05:20:11;2.60;;;2.20;;
15240;SDS011;7723;52.170;9.978;2022-08-07T05:22:42;2.88;;;2.03;;
15240;SDS011;7723;52.170;9.978;2022-08-07T05:25:11;4.53;;;2.30;;
15240;SDS011;7723;52.170;9.978;2022-08-07T05:27:41;2.40;;;1.90;;
15240;SDS011;7723;52.170;9.978;2022-08-07T05:30:11;2.45;;;2.15;;
15240;SDS011;7723;52.170;9.978;2022-08-07T05:32:41;2.35;;;1.90;;
15240;SDS011;7723;52.170;9.978;2022-08-07T05:35:11;4.80;;;2.33;;
15240;SDS011;7723;52.170;9.978;2022-08-07T05:37:40;4.07;;;2.15;;
15240;SDS011;7723;52.170;9.978;2022-08-07T05:40:08;2.60;;;2.40;;
15240;SDS011;7723;52.170;9.978;2022-08-07T05:42:37;2.20;;;2.00;;
15240;SDS011;7723;52.170;9.978;2022-08-07T05:45:05;3.67;;;2.50;;
15240;SDS011;7723;52.170;9.978;2022-08-07T05:47:33;3.15;;;2.83;;
15240;SDS011;7723;52.170;9.978;2022-08-07T05:50:02;4.80;;;2.35;;
15240;SDS011;7723;52.170;9.978;2022-08-07T05:52:31;2.90;;;2.45;;
15240;SDS011;7723;52.170;9.978;2022-08-07T05:54:58;5.65;;;2.50;;
15240;SDS011;7723;52.170;9.978;2022-08-07T05:57:26;2.65;;;2.42;;
15240;SDS011;7723;52.170;9.978;2022-08-07T05:59:55;3.75;;;2.33;;
15240;SDS011;7723;52.170;9.978;2022-08-07T06:02:24;3.60;;;2.95;;
15240;SDS011;7723;52.170;9.978;2022-08-07T06:04:54;2.60;;;2.40;;
15240;SDS011;7723;52.170;9.978;2022-08-07T06:07:26;3.03;;;2.70;;
15240;SDS011;7723;52.170;9.978;2022-08-07T06:09:53;2.92;;;2.70;;
15240;SDS011;7723;52.170;9.978;2022-08-07T06:12:21;3.60;;;2.72;;
15240;SDS011;7723;52.170;9.978;2022-08-07T06:14:48;3.30;;;2.60;;
15240;SDS011;7723;52.170;9.978;2022-08-07T06:17:16;2.97;;;2.65;;
15240;SDS011;7723;52.170;9.978;2022-08-07T06:19:45;3.30;;;2.67;;
15240;SDS011;7723;52.170;9.978;2022-08-07T06:22:13;3.67;;;3.20;;
15240;SDS011;7723;52.170;9.978;2022-08-07T06:24:43;4.38;;;2.83;;
15240;SDS011;7723;52.170;9.978;2022-08-07T06:27:18;3.92;;;3.45;;
15240;SDS011;7723;52.170;9.978;2022-08-07T06:29:46;3.13;;;2.65;;
15240;SDS011;7723;52.170;9.978;2022-08-07T06:32:13;3.25;;;2.92;;
15240;SDS011;7723;52.170;9.978;2022-08-07T06:34:40;4.43;;;3.17;;
15240;SDS011;7723;52.170;9.978;2022-08-07T06:37:07;3.42;;;3.13;;
15240;SDS011;7723;52.170;9.978;2022-08-07T06:39:34;4.82;;;2.83;;
15240;SDS011;7723;52.170;9.978;2022-08-07T06:42:05;4.05;;;3.50;;
15240;SDS011;7723;52.170;9.978;2022-08-07T06:44:35;4.68;;;3.47;;
15240;SDS011;7723;52.170;9.978;2022-08-07T06:47:04;3.40;;;3.10;;
15240;SDS011;7723;52.170;9.978;2022-08-07T06:49:32;3.17;;;2.85;;
15240;SDS011;7723;52.170;9.978;2022-08-07T06:51:59;3.63;;;3.33;;
15240;SDS011;7723;52.170;9.978;2022-08-07T06:54:28;6.07;;;3.67;;
15240;SDS011;7723;52.170;9.978;2022-08-07T06:56:57;3.40;;;3.10;;
15240;SDS011;7723;52.170;9.978;2022-08-07T06:59:29;3.47;;;2.70;;
15240;SDS011;7723;52.170;9.978;2022-08-07T07:01:58;4.00;;;3.08;;
15240;SDS011;7723;52.170;9.978;2022-08-07T07:04:27;5.07;;;3.03;;
15240;SDS011;7723;52.170;9.978;2022-08-07T07:06:56;3.80;;;2.97;;
15240;SDS011;7723;52.170;9.978;2022-08-07T07:09:24;5.50;;;3.30;;
15240;SDS011;7723;52.170;9.978;2022-08-07T07:12:13;8.80;;;3.05;;
15240;SDS011;7723;52.170;9.978;2022-08-07T07:14:50;4.20;;;3.28;;
15240;SDS011;7723;52.170;9.978;2022-08-07T07:17:23;4.88;;;2.90;;
15240;SDS011;7723;52.170;9.978;2022-08-07T07:19:57;3.50;;;3.20;;
15240;SDS011;7723;52.170;9.978;2022-08-07T07:22:27;5.97;;;2.65;;
15240;SDS011;7723;52.170;9.978;2022-08-07T07:24:55;3.55;;;2.85;;
15240;SDS011;7723;52.170;9.978;2022-08-07T07:27:23;9.32;;;3.25;;
15240;SDS011;7723;52.170;9.978;2022-08-07T07:29:57;4.40;;;3.00;;
15240;SDS011;7723;52.170;9.978;2022-08-07T07:32:27;4.70;;;3.17;;
15240;SDS011;7723;52.170;9.978;2022-08-07T07:34:57;3.05;;;2.72;;
15240;SDS011;7723;52.170;9.978;2022-08-07T07:37:27;3.92;;;3.30;;
15240;SDS011;7723;52.170;9.978;2022-08-07T07:39:57;3.30;;;3.00;;
15240;SDS011;7723;52.170;9.978;2022-08-07T07:42:26;4.65;;;2.90;;
15240;SDS011;7723;52.170;9.978;2022-08-07T07:44:53;4.05;;;3.08;;
15240;SDS011;7723;52.170;9.978;2022-08-07T07:47:25;5.03;;;2.83;;
15240;SDS011;7723;52.170;9.978;2022-08-07T07:49:53;3.35;;;2.92;;
15240;SDS011;7723;52.170;9.978;2022-08-07T07:52:21;3.35;;;2.38;;
15240;SDS011;7723;52.170;9.978;2022-08-07T07:54:50;6.57;;;2.85;;
15240;SDS011;7723;52.170;9.978;2022-08-07T07:57:21;3.42;;;2.63;;
15240;SDS011;7723;52.170;9.978;2022-08-07T07:59:49;5.63;;;2.90;;
15240;SDS011;7723;52.170;9.978;2022-08-07T08:02:19;4.15;;;2.40;;
15240;SDS011;7723;52.170;9.978;2022-08-07T08:04:47;3.90;;;3.20;;
15240;SDS011;7723;52.170;9.978;2022-08-07T08:07:14;4.50;;;2.60;;
15240;SDS011;7723;52.170;9.978;2022-08-07T08:09:42;3.17;;;2.88;;
15240;SDS011;7723;52.170;9.978;2022-08-07T08:12:14;3.72;;;2.65;;
15240;SDS011;7723;52.170;9.978;2022-08-07T08:14:42;5.82;;;3.08;;
15240;SDS011;7723;52.170;9.978;2022-08-07T08:17:09;4.90;;;3.33;;
15240;SDS011;7723;52.170;9.978;2022-08-07T08:19:40;3.00;;;2.65;;
15240;SDS011;7723;52.170;9.978;2022-08-07T08:22:09;2.47;;;2.25;;
15240;SDS011;7723;52.170;9.978;2022-08-07T08:24:55;2.97;;;2.50;;
15240;SDS011;7723;52.170;9.978;2022-08-07T08:27:41;2.38;;;2.17;;
15240;SDS011;7723;52.170;9.978;2022-08-07T08:30:09;2.30;;;2.10;;
15240;SDS011;7723;52.170;9.978;2022-08-07T08:32:39;3.25;;;2.67;;
15240;SDS011;7723;52.170;9.978;2022-08-07T08:35:11;2.50;;;2.30;;
15240;SDS011;7723;52.170;9.978;2022-08-07T08:37:42;3.17;;;2.35;;
15240;SDS011;7723;52.170;9.978;2022-08-07T08:40:13;3.25;;;2.05;;
15240;SDS011;7723;52.170;9.978;2022-08-07T08:42:48;2.67;;;2.20;;
15240;SDS011;7723;52.170;9.978;2022-08-07T08:45:22;2.35;;;2.10;;
15240;SDS011;7723;52.170;9.978;2022-08-07T08:48:06;1.88;;;1.73;;
15240;SDS011;7723;52.170;9.978;2022-08-07T08:50:41;3.63;;;2.05;;
15240;SDS011;7723;52.170;9.978;2022-08-07T08:53:15;4.00;;;1.90;;
15240;SDS011;7723;52.170;9.978;2022-08-07T08:55:51;3.00;;;2.35;;
15240;SDS011;7723;52.170;9.978;2022-08-07T08:58:26;2.25;;;2.00;;
15240;SDS011;7723;52.170;9.978;2022-08-07T09:01:01;3.22;;;2.00;;
15240;SDS011;7723;52.170;9.978;2022-08-07T09:03:38;2.17;;;1.98;;
15240;SDS011;7723;52.170;9.978;2022-08-07T09:06:18;5.10;;;1.95;;
15240;SDS011;7723;52.170;9.978;2022-08-07T09:08:56;2.20;;;1.75;;
15240;SDS011;7723;52.170;9.978;2022-08-07T09:11:34;2.40;;;1.77;;
15240;SDS011;7723;52.170;9.978;2022-08-07T09:14:10;4.32;;;1.85;;
15240;SDS011;7723;52.170;9.978;2022-08-07T09:16:53;1.83;;;1.40;;
15240;SDS011;7723;52.170;9.978;2022-08-07T09:19:34;1.75;;;1.50;;
15240;SDS011;7723;52.170;9.978;2022-08-07T09:22:28;1.48;;;1.20;;
15240;SDS011;7723;52.170;9.978;2022-08-07T09:25:06;1.75;;;1.20;;
15240;SDS011;7723;52.170;9.978;2022-08-07T09:27:39;1.27;;;1.02;;
15240;SDS011;7723;52.170;9.978;2022-08-07T09:30:10;1.20;;;1.10;;
15240;SDS011;7723;52.170;9.978;2022-08-07T09:35:40;1.00;;;0.98;;
15240;SDS011;7723;52.170;9.978;2022-08-07T09:38:15;2.15;;;1.10;;
15240;SDS011;7723;52.170;9.978;2022-08-07T09:40:53;1.90;;;1.02;;
15240;SDS011;7723;52.170;9.978;2022-08-07T09:43:30;1.30;;;1.10;;
15240;SDS011;7723;52.170;9.978;2022-08-07T09:46:07;2.58;;;1.58;;
15240;SDS011;7723;52.170;9.978;2022-08-07T09:48:45;1.45;;;1.00;;
15240;SDS011;7723;52.170;9.978;2022-08-07T09:51:26;1.45;;;1.30;;
15240;SDS011;7723;52.170;9.978;2022-08-07T09:54:17;1.45;;;1.20;;
15240;SDS011;7723;52.170;9.978;2022-08-07T09:56:59;1.40;;;0.90;;
15240;SDS011;7723;52.170;9.978;2022-08-07T09:59:51;1.48;;;1.10;;
15240;SDS011;7723;52.170;9.978;2022-08-07T10:02:34;2.40;;;1.33;;
15240;SDS011;7723;52.170;9.978;2022-08-07T10:05:24;1.35;;;0.93;;
15240;SDS011;7723;52.170;9.978;2022-08-07T10:08:08;1.73;;;1.05;;
15240;SDS011;7723;52.170;9.978;2022-08-07T10:10:55;1.33;;;1.00;;
15240;SDS011;7723;52.170;9.978;2022-08-07T10:13:36;0.95;;;0.90;;
15240;SDS011;7723;52.170;9.978;2022-08-07T10:16:28;1.52;;;1.40;;
15240;SDS011;7723;52.170;9.978;2022-08-07T10:19:21;1.98;;;1.02;;
15240;SDS011;7723;52.170;9.978;2022-08-07T10:22:05;1.67;;;1.02;;
15240;SDS011;7723;52.170;9.978;2022-08-07T10:25:02;1.55;;;1.10;;
15240;SDS011;7723;52.170;9.978;2022-08-07T10:27:50;1.45;;;1.35;;
15240;SDS011;7723;52.170;9.978;2022-08-07T10:30:32;1.98;;;1.00;;
15240;SDS011;7723;52.170;9.978;2022-08-07T10:33:21;1.45;;;1.20;;
15240;SDS011;7723;52.170;9.978;2022-08-07T10:36:12;1.83;;;1.05;;
15240;SDS011;7723;52.170;9.978;2022-08-07T10:38:50;1.15;;;1.05;;
15240;SDS011;7723;52.170;9.978;2022-08-07T10:41:25;2.35;;;1.20;;
15240;SDS011;7723;52.170;9.978;2022-08-07T10:44:01;1.17;;;1.08;;
15240;SDS011;7723;52.170;9.978;2022-08-07T10:46:35;1.63;;;1.05;;
15240;SDS011;7723;52.170;9.978;2022-08-07T10:49:09;1.67;;;1.50;;
15240;SDS011;7723;52.170;9.978;2022-08-07T10:51:42;2.08;;;1.48;;
15240;SDS011;7723;52.170;9.978;2022-08-07T10:54:20;2.60;;;1.27;;
15240;SDS011;7723;52.170;9.978;2022-08-07T10:57:02;1.77;;;1.40;;
15240;SDS011;7723;52.170;9.978;2022-08-07T10:59:46;1.30;;;1.20;;
15240;SDS011;7723;52.170;9.978;2022-08-07T11:02:27;3.22;;;1.40;;
15240;SDS011;7723;52.170;9.978;2022-08-07T11:05:01;2.15;;;1.35;;
15240;SDS011;7723;52.170;9.978;2022-08-07T11:07:37;1.45;;;1.35;;
15240;SDS011;7723;52.170;9.978;2022-08-07T11:10:11;1.60;;;1.00;;
15240;SDS011;7723;52.170;9.978;2022-08-07T11:12:46;1.55;;;1.30;;
15240;SDS011;7723;52.170;9.978;2022-08-07T11:15:22;1.80;;;1.08;;
15240;SDS011;7723;52.170;9.978;2022-08-07T11:17:58;1.30;;;1.20;;
15240;SDS011;7723;52.170;9.978;2022-08-07T11:20:34;1.20;;;1.10;;
15240;SDS011;7723;52.170;9.978;2022-08-07T11:23:10;1.42;;;1.30;;
15240;SDS011;7723;52.170;9.978;2022-08-07T11:25:45;2.05;;;1.10;;
15240;SDS011;7723;52.170;9.978;2022-08-07T11:28:18;1.30;;;1.20;;
15240;SDS011;7723;52.170;9.978;2022-08-07T11:30:52;1.30;;;1.00;;
15240;SDS011;7723;52.170;9.978;2022-08-07T11:33:26;2.03;;;1.23;;
15240;SDS011;7723;52.170;9.978;2022-08-07T11:36:02;2.80;;;1.40;;
15240;SDS011;7723;52.170;9.978;2022-08-07T11:38:39;2.13;;;1.38;;
15240;SDS011;7723;52.170;9.978;2022-08-07T11:41:16;2.17;;;1.17;;
15240;SDS011;7723;52.170;9.978;2022-08-07T11:43:51;3.90;;;1.15;;
15240;SDS011;7723;52.170;9.978;2022-08-07T11:46:42;1.20;;;1.10;;
15240;SDS011;7723;52.170;9.978;2022-08-07T11:49:28;2.13;;;1.27;;
15240;SDS011;7723;52.170;9.978;2022-08-07T11:52:26;2.72;;;1.30;;
15240;SDS011;7723;52.170;9.978;2022-08-07T11:55:13;1.95;;;1.10;;
15240;SDS011;7723;52.170;9.978;2022-08-07T11:57:54;1.30;;;1.20;;
15240;SDS011;7723;52.170;9.978;2022-08-07T12:00:32;1.17;;;1.08;;
15240;SDS011;7723;52.170;9.978;2022-08-07T12:03:18;3.80;;;1.60;;
15240;SDS011;7723;52.170;9.978;2022-08-07T12:06:04;1.10;;;1.00;;
15240;SDS011;7723;52.170;9.978;2022-08-07T12:08:46;1.20;;;0.88;;
15240;SDS011;7723;52.170;9.978;2022-08-07T12:11:20;1.77;;;1.10;;
15240;SDS011;7723;52.170;9.978;2022-08-07T12:13:51;1.65;;;1.30;;
15240;SDS011;7723;52.170;9.978;2022-08-07T12:16:24;1.10;;;1.00;;
15240;SDS011;7723;52.170;9.978;2022-08-07T12:18:56;1.27;;;1.00;;
15240;SDS011;7723;52.170;9.978;2022-08-07T12:21:39;2.63;;;1.10;;
15240;SDS011;7723;52.170;9.978;2022-08-07T12:24:13;1.80;;;1.23;;
15240;SDS011;7723;52.170;9.978;2022-08-07T12:26:47;1.10;;;1.00;;
15240;SDS011;7723;52.170;9.978;2022-08-07T12:29:20;2.70;;;1.17;;
15240;SDS011;7723;52.170;9.978;2022-08-07T12:31:56;0.98;;;0.82;;
15240;SDS011;7723;52.170;9.978;2022-08-07T12:34:30;1.58;;;1.27;;
15240;SDS011;7723;52.170;9.978;2022-08-07T12:37:01;2.65;;;1.13;;
15240;SDS011;7723;52.170;9.978;2022-08-07T12:39:29;1.10;;;1.00;;
15240;SDS011;7723;52.170;9.978;2022-08-07T12:41:57;1.20;;;0.90;;
15240;SDS011;7723;52.170;9.978;2022-08-07T12:44:25;1.25;;;0.95;;
15240;SDS011;7723;52.170;9.978;2022-08-07T12:46:58;2.40;;;1.30;;
15240;SDS011;7723;52.170;9.978;2022-08-07T12:49:41;1.50;;;0.90;;
15240;SDS011;7723;52.170;9.978;2022-08-07T12:52:19;1.63;;;1.20;;
15240;SDS011;7723;52.170;9.978;2022-08-07T12:54:56;1.80;;;0.90;;
15240;SDS011;7723;52.170;9.978;2022-08-07T12:57:29;1.33;;;1.20;;
15240;SDS011;7723;52.170;9.978;2022-08-07T12:59:58;1.17;;;1.08;;
15240;SDS011;7723;52.170;9.978;2022-08-07T13:05:35;2.50;;;1.17;;
15240;SDS011;7723;52.170;9.978;2022-08-07T13:08:27;1.15;;;1.00;;
15240;SDS011;7723;52.170;9.978;2022-08-07T13:11:07;3.75;;;2.25;;
15240;SDS011;7723;52.170;9.978;2022-08-07T13:13:43;1.30;;;1.20;;
15240;SDS011;7723;52.170;9.978;2022-08-07T13:16:21;3.03;;;1.48;;
15240;SDS011;7723;52.170;9.978;2022-08-07T13:18:56;0.80;;;0.80;;
15240;SDS011;7723;52.170;9.978;2022-08-07T13:21:37;1.20;;;1.00;;
15240;SDS011;7723;52.170;9.978;2022-08-07T13:24:10;0.93;;;0.70;;
15240;SDS011;7723;52.170;9.978;2022-08-07T13:26:53;1.63;;;0.95;;
15240;SDS011;7723;52.170;9.978;2022-08-07T13:29:26;1.02;;;0.90;;
15240;SDS011;7723;52.170;9.978;2022-08-07T13:32:02;2.08;;;1.10;;
15240;SDS011;7723;52.170;9.978;2022-08-07T13:34:37;1.63;;;1.00;;
15240;SDS011;7723;52.170;9.978;2022-08-07T13:37:14;0.93;;;0.73;;
15240;SDS011;7723;52.170;9.978;2022-08-07T13:39:49;1.27;;;0.80;;
15240;SDS011;7723;52.170;9.978;2022-08-07T13:42:22;1.20;;;1.08;;
15240;SDS011;7723;52.170;9.978;2022-08-07T13:44:51;1.77;;;1.05;;
15240;SDS011;7723;52.170;9.978;2022-08-07T13:47:19;1.95;;;1.30;;
15240;SDS011;7723;52.170;9.978;2022-08-07T13:49:48;2.22;;;1.00;;
15240;SDS011;7723;52.170;9.978;2022-08-07T13:52:20;1.67;;;1.10;;
15240;SDS011;7723;52.170;9.978;2022-08-07T13:54:48;0.90;;;0.90;;
15240;SDS011;7723;52.170;9.978;2022-08-07T13:57:15;1.00;;;0.90;;
15240;SDS011;7723;52.170;9.978;2022-08-07T13:59:49;3.70;;;2.03;;
15240;SDS011;7723;52.170;9.978;2022-08-07T14:02:21;2.13;;;1.02;;
15240;SDS011;7723;52.170;9.978;2022-08-07T14:04:52;1.67;;;1.00;;
15240;SDS011;7723;52.170;9.978;2022-08-07T14:07:24;1.30;;;1.20;;
15240;SDS011;7723;52.170;9.978;2022-08-07T14:09:56;2.75;;;0.88;;
15240;SDS011;7723;52.170;9.978;2022-08-07T14:12:25;1.65;;;1.00;;
15240;SDS011;7723;52.170;9.978;2022-08-07T14:14:59;1.00;;;0.85;;
15240;SDS011;7723;52.170;9.978;2022-08-07T14:17:30;0.80;;;0.80;;
15240;SDS011;7723;52.170;9.978;2022-08-07T14:20:03;1.48;;;1.02;;
15240;SDS011;7723;52.170;9.978;2022-08-07T14:22:36;1.30;;;1.20;;
15240;SDS011;7723;52.170;9.978;2022-08-07T14:25:07;1.67;;;1.50;;
15240;SDS011;7723;52.170;9.978;2022-08-07T14:27:37;2.85;;;1.70;;
15240;SDS011;7723;52.170;9.978;2022-08-07T14:30:06;1.60;;;0.93;;
15240;SDS011;7723;52.170;9.978;2022-08-07T14:32:37;1.58;;;1.08;;
15240;SDS011;7723;52.170;9.978;2022-08-07T14:35:10;1.05;;;1.00;;
15240;SDS011;7723;52.170;9.978;2022-08-07T14:37:44;1.85;;;1.23;;
15240;SDS011;7723;52.170;9.978;2022-08-07T14:40:17;1.42;;;1.30;;
15240;SDS011;7723;52.170;9.978;2022-08-07T14:42:51;1.88;;;1.25;;
15240;SDS011;7723;52.170;9.978;2022-08-07T14:45:20;1.85;;;0.73;;
15240;SDS011;7723;52.170;9.978;2022-08-07T14:47:50;1.85;;;1.20;;
15240;SDS011;7723;52.170;9.978;2022-08-07T14:50:19;1.00;;;0.93;;
15240;SDS011;7723;52.170;9.978;2022-08-07T14:52:49;1.40;;;1.30;;
15240;SDS011;7723;52.170;9.978;2022-08-07T14:55:16;2.95;;;2.67;;
15240;SDS011;7723;52.170;9.978;2022-08-07T14:57:46;1.45;;;1.35;;
15240;SDS011;7723;52.170;9.978;2022-08-07T15:00:16;4.72;;;3.92;;
15240;SDS011;7723;52.170;9.978;2022-08-07T15:02:45;3.63;;;1.65;;
15240;SDS011;7723;52.170;9.978;2022-08-07T15:05:13;7.10;;;5.15;;
15240;SDS011;7723;52.170;9.978;2022-08-07T15:07:42;1.55;;;1.20;;
15240;SDS011;7723;52.170;9.978;2022-08-07T15:10:17;0.73;;;0.73;;
15240;SDS011;7723;52.170;9.978;2022-08-07T15:12:45;1.50;;;1.40;;
15240;SDS011;7723;52.170;9.978;2022-08-07T15:15:14;1.75;;;0.90;;
15240;SDS011;7723;52.170;9.978;2022-08-07T15:17:51;1.40;;;0.90;;
15240;SDS011;7723;52.170;9.978;2022-08-07T15:20:23;1.50;;;1.00;;
15240;SDS011;7723;52.170;9.978;2022-08-07T15:22:53;1.00;;;0.80;;
15240;SDS011;7723;52.170;9.978;2022-08-07T15:25:23;1.10;;;1.00;;
15240;SDS011;7723;52.170;9.978;2022-08-07T15:27:57;0.85;;;0.85;;
15240;SDS011;7723;52.170;9.978;2022-08-07T15:30:26;1.00;;;0.90;;
15240;SDS011;7723;52.170;9.978;2022-08-07T15:32:55;1.23;;;0.80;;
15240;SDS011;7723;52.170;9.978;2022-08-07T15:35:25;2.05;;;0.82;;
15240;SDS011;7723;52.170;9.978;2022-08-07T15:37:53;2.17;;;0.73;;